createdAt,value
2022-10-08T00:00:54.259Z,10.84
2022-10-08T00:03:23.000Z,10.82
2022-10-08T00:06:07.374Z,10.90
2022-10-08T00:08:38.127Z,11.00
2022-10-08T00:11:10.866Z,11.07
2022-10-08T00:13:39.851Z,11.18
2022-10-08T00:16:07.959Z,11.32
2022-10-08T00:18:34.997Z,11.36
2022-10-08T00:21:10.359Z,11.47
2022-10-08T00:23:37.532Z,11.57
2022-10-08T00:26:04.893Z,11.62
2022-10-08T00:28:31.722Z,11.73
2022-10-08T00:30:58.531Z,11.75
2022-10-08T00:33:25.289Z,11.79
2022-10-08T00:35:52.187Z,11.66
2022-10-08T00:38:18.897Z,11.77
2022-10-08T00:40:46.105Z,11.71
2022-10-08T00:43:16.251Z,11.72
2022-10-08T00:45:45.858Z,11.65
2022-10-08T00:48:19.209Z,11.58
2022-10-08T00:50:46.000Z,11.48
2022-10-08T00:53:12.980Z,11.46
2022-10-08T00:55:43.560Z,11.45
2022-10-08T00:58:22.315Z,11.50
2022-10-08T01:00:50.414Z,11.37
2022-10-08T01:03:17.232Z,11.25
2022-10-08T01:05:59.075Z,11.29
2022-10-08T01:08:25.784Z,11.14
2022-10-08T01:11:04.281Z,11.02
2022-10-08T01:13:46.939Z,11.15
2022-10-08T01:16:39.667Z,11.20
2022-10-08T01:19:21.331Z,11.08
2022-10-08T01:22:05.341Z,11.02
2022-10-08T01:24:47.349Z,10.78
2022-10-08T01:27:38.471Z,10.67
2022-10-08T01:30:10.217Z,10.71
2022-10-08T01:32:43.574Z,10.70
2022-10-08T01:35:16.619Z,10.74
2022-10-08T01:37:45.165Z,10.74
2022-10-08T01:40:27.060Z,10.72
2022-10-08T01:42:56.393Z,10.68
2022-10-08T01:45:28.696Z,10.70
2022-10-08T01:47:59.887Z,10.71
2022-10-08T01:50:34.926Z,10.76
2022-10-08T01:53:07.183Z,10.82
2022-10-08T01:55:39.300Z,10.79
2022-10-08T01:58:17.279Z,10.73
2022-10-08T02:00:47.532Z,10.65
2022-10-08T02:03:14.368Z,10.59
2022-10-08T02:05:47.353Z,10.50
2022-10-08T02:08:14.193Z,10.52
2022-10-08T02:10:41.104Z,10.54
2022-10-08T02:13:08.159Z,10.52
2022-10-08T02:15:43.840Z,10.37
2022-10-08T02:18:10.557Z,10.28
2022-10-08T02:20:56.047Z,10.21
2022-10-08T02:23:29.311Z,10.26
2022-10-08T02:26:08.589Z,10.35
2022-10-08T02:28:41.483Z,10.46
2022-10-08T02:31:19.689Z,10.43
2022-10-08T02:33:54.072Z,10.44
2022-10-08T02:36:28.517Z,10.44
2022-10-08T02:39:02.192Z,10.48
2022-10-08T02:41:32.964Z,10.55
2022-10-08T02:44:03.190Z,10.55
2022-10-08T02:46:34.744Z,10.46
2022-10-08T02:49:12.433Z,10.52
2022-10-08T02:51:42.753Z,10.59
2022-10-08T02:54:10.490Z,10.73
2022-10-08T02:56:47.501Z,10.67
2022-10-08T02:59:19.675Z,10.62
2022-10-08T03:01:57.360Z,10.64
2022-10-08T03:04:48.900Z,10.59
2022-10-08T03:07:15.775Z,10.60
2022-10-08T03:09:49.665Z,10.72
2022-10-08T03:12:17.089Z,10.68
2022-10-08T03:14:47.835Z,10.67
2022-10-08T03:17:19.705Z,10.58
2022-10-08T03:19:46.541Z,10.60
2022-10-08T03:22:13.321Z,10.63
2022-10-08T03:24:40.667Z,10.68
2022-10-08T03:27:07.642Z,10.74
2022-10-08T03:29:34.429Z,10.75
2022-10-08T03:32:01.257Z,10.80
2022-10-08T03:34:28.112Z,10.95
2022-10-08T03:37:09.332Z,11.02
2022-10-08T03:39:36.178Z,11.04
2022-10-08T03:42:04.211Z,11.12
2022-10-08T03:44:30.940Z,11.00
2022-10-08T03:46:57.809Z,10.91
2022-10-08T03:49:24.659Z,10.88
2022-10-08T03:51:51.487Z,10.99
2022-10-08T03:54:18.552Z,10.98
2022-10-08T03:56:45.498Z,11.05
2022-10-08T03:59:12.459Z,11.02
2022-10-08T04:01:39.408Z,11.11
2022-10-08T04:04:06.323Z,11.15
2022-10-08T04:06:33.170Z,11.20
2022-10-08T04:09:00.339Z,11.26
2022-10-08T04:11:29.314Z,10.88
2022-10-08T04:13:56.071Z,10.96
2022-10-08T04:16:22.857Z,11.12
2022-10-08T04:18:50.319Z,11.16
2022-10-08T04:21:18.920Z,10.60
2022-10-08T04:23:48.870Z,10.39
2022-10-08T04:26:16.623Z,10.26
2022-10-08T04:28:44.888Z,10.14
2022-10-08T04:31:14.187Z,10.40
2022-10-08T04:33:41.143Z,10.65
2022-10-08T04:36:13.296Z,10.58
2022-10-08T04:38:41.774Z,10.21
2022-10-08T04:41:12.887Z,10.00
2022-10-08T04:43:41.599Z,9.94
2022-10-08T04:46:11.191Z,9.92
2022-10-08T04:48:38.746Z,10.14
2022-10-08T04:51:10.508Z,10.43
2022-10-08T04:53:38.804Z,10.58
2022-10-08T04:56:17.630Z,10.55
2022-10-08T04:58:45.220Z,10.66
2022-10-08T05:01:14.718Z,10.68
2022-10-08T05:03:43.833Z,10.44
2022-10-08T05:06:11.809Z,10.22
2022-10-08T05:08:38.941Z,10.12
2022-10-08T05:11:06.445Z,9.96
2022-10-08T05:13:33.746Z,9.86
2022-10-08T05:16:08.977Z,9.79
2022-10-08T05:18:36.451Z,9.78
2022-10-08T05:21:05.474Z,9.89
2022-10-08T05:23:33.392Z,9.99
2022-10-08T05:26:00.283Z,10.14
2022-10-08T05:28:27.030Z,10.23
2022-10-08T05:30:58.975Z,10.12
2022-10-08T05:33:25.974Z,10.07
2022-10-08T05:35:52.743Z,9.99
2022-10-08T05:38:19.477Z,9.98
2022-10-08T05:40:46.218Z,10.17
2022-10-08T05:43:12.984Z,10.43
2022-10-08T05:45:39.678Z,10.68
2022-10-08T05:48:06.462Z,10.79
2022-10-08T05:50:36.648Z,10.91
2022-10-08T05:53:07.353Z,11.15
2022-10-08T05:55:35.952Z,10.87
2022-10-08T05:58:02.687Z,10.16
2022-10-08T06:00:29.369Z,9.82
2022-10-08T06:02:56.298Z,9.66
2022-10-08T06:05:23.063Z,9.57
2022-10-08T06:07:49.785Z,9.52
2022-10-08T06:10:16.564Z,9.47
2022-10-08T06:12:43.287Z,9.52
2022-10-08T06:15:10.145Z,9.73
2022-10-08T06:17:36.958Z,9.92
2022-10-08T06:20:03.908Z,10.14
2022-10-08T06:22:31.370Z,10.36
2022-10-08T06:24:58.129Z,10.56
2022-10-08T06:27:24.871Z,10.61
2022-10-08T06:29:51.608Z,10.83
2022-10-08T06:32:18.391Z,11.00
2022-10-08T06:34:45.054Z,11.08
2022-10-08T06:37:11.877Z,10.99
2022-10-08T06:39:38.682Z,10.99
2022-10-08T06:42:05.453Z,10.85
2022-10-08T06:44:32.212Z,10.86
2022-10-08T06:46:58.976Z,10.94
2022-10-08T06:49:25.859Z,11.05
2022-10-08T06:51:52.695Z,11.00
2022-10-08T06:54:19.563Z,11.04
2022-10-08T06:56:46.784Z,11.00
2022-10-08T06:59:13.513Z,10.91
2022-10-08T07:01:40.433Z,10.95
2022-10-08T07:04:07.465Z,10.96
2022-10-08T07:06:37.282Z,10.86
2022-10-08T07:09:05.215Z,10.93
2022-10-08T07:11:34.114Z,10.95
2022-10-08T07:14:04.387Z,10.96
2022-10-08T07:16:31.286Z,11.07
2022-10-08T07:18:58.887Z,11.23
2022-10-08T07:21:26.426Z,11.32
2022-10-08T07:23:53.244Z,11.36
2022-10-08T07:26:22.390Z,11.37
2022-10-08T07:28:59.286Z,11.26
2022-10-08T07:31:28.478Z,11.23
2022-10-08T07:33:59.860Z,11.23
2022-10-08T07:36:28.077Z,11.11
2022-10-08T07:39:00.630Z,11.17
2022-10-08T07:41:28.434Z,10.92
2022-10-08T07:43:57.735Z,10.86
2022-10-08T07:46:35.439Z,10.82
2022-10-08T07:49:04.107Z,10.91
2022-10-08T07:51:33.147Z,10.75
2022-10-08T07:54:02.809Z,10.71
2022-10-08T07:56:30.835Z,10.76
2022-10-08T07:59:00.038Z,10.80
2022-10-08T08:01:27.511Z,11.00
2022-10-08T08:03:58.955Z,11.05
2022-10-08T08:06:25.920Z,11.01
2022-10-08T08:08:53.061Z,11.09
2022-10-08T08:11:22.156Z,11.20
2022-10-08T08:13:49.946Z,11.25
2022-10-08T08:16:19.459Z,11.22
2022-10-08T08:18:48.723Z,11.06
2022-10-08T08:21:29.667Z,11.26
2022-10-08T08:23:58.689Z,11.44
2022-10-08T08:26:26.924Z,11.66
2022-10-08T08:28:55.936Z,11.86
2022-10-08T08:31:44.281Z,12.05
2022-10-08T08:34:13.928Z,12.15
2022-10-08T08:36:46.450Z,12.08
2022-10-08T08:39:18.920Z,12.16
2022-10-08T08:42:03.723Z,12.16
2022-10-08T08:44:35.012Z,12.13
2022-10-08T08:47:36.540Z,12.05
2022-10-08T08:50:32.662Z,12.05
2022-10-08T08:53:00.299Z,11.98
2022-10-08T08:55:35.678Z,11.86
2022-10-08T08:58:11.113Z,11.51
2022-10-08T09:00:42.726Z,11.54
2022-10-08T09:03:43.623Z,11.53
2022-10-08T09:06:14.843Z,11.43
2022-10-08T09:08:47.765Z,11.40
2022-10-08T09:11:17.634Z,11.45
2022-10-08T09:14:00.486Z,11.45
2022-10-08T09:16:28.218Z,11.53
2022-10-08T09:18:55.461Z,11.59
2022-10-08T09:21:25.232Z,11.65
2022-10-08T09:23:52.021Z,11.67
2022-10-08T09:26:24.516Z,11.70
2022-10-08T09:28:56.830Z,11.78
2022-10-08T09:31:39.703Z,11.82
2022-10-08T09:34:18.613Z,11.89
2022-10-08T09:37:01.526Z,11.97
2022-10-08T09:39:31.451Z,12.02
2022-10-08T09:42:07.326Z,12.10
2022-10-08T09:44:51.642Z,12.25
2022-10-08T09:47:20.740Z,12.21
2022-10-08T09:50:06.445Z,12.23
2022-10-08T09:52:36.443Z,12.30
2022-10-08T09:55:18.799Z,12.46
2022-10-08T09:57:51.147Z,12.59
2022-10-08T10:00:30.158Z,12.64
2022-10-08T10:03:00.901Z,12.73
2022-10-08T10:05:33.528Z,12.77
2022-10-08T10:08:00.787Z,12.90
2022-10-08T10:10:44.353Z,12.96
2022-10-08T10:13:19.615Z,13.16
2022-10-08T10:15:51.212Z,13.27
2022-10-08T10:18:23.218Z,13.25
2022-10-08T10:20:55.492Z,13.01
2022-10-08T10:23:35.081Z,12.82
2022-10-08T10:26:19.953Z,12.61
2022-10-08T10:28:50.953Z,12.73
2022-10-08T10:31:32.149Z,12.46
2022-10-08T10:34:02.997Z,12.49
2022-10-08T10:36:35.551Z,12.49
2022-10-08T10:39:17.940Z,12.62
2022-10-08T10:42:13.598Z,12.47
2022-10-08T10:45:15.464Z,12.08
2022-10-08T10:47:42.400Z,12.02
2022-10-08T10:50:16.837Z,11.60
2022-10-08T10:52:50.331Z,11.63
2022-10-08T10:55:26.721Z,11.73
2022-10-08T10:57:59.734Z,11.77
2022-10-08T11:00:48.261Z,11.79
2022-10-08T11:03:28.393Z,11.83
2022-10-08T11:06:16.191Z,11.90
2022-10-08T11:09:01.207Z,12.00
2022-10-08T11:11:42.023Z,12.20
2022-10-08T11:14:33.813Z,12.37
2022-10-08T11:17:28.221Z,12.27
2022-10-08T11:20:10.380Z,12.25
2022-10-08T11:22:56.388Z,12.32
2022-10-08T11:25:26.062Z,12.50
2022-10-08T11:27:58.750Z,12.70
2022-10-08T11:30:42.334Z,12.74
2022-10-08T11:33:14.540Z,12.83
2022-10-08T11:35:47.026Z,12.62
2022-10-08T11:38:26.557Z,12.39
2022-10-08T11:40:59.642Z,12.17
2022-10-08T11:43:29.083Z,11.86
2022-10-08T11:46:33.722Z,11.74
2022-10-08T11:49:23.605Z,11.64
2022-10-08T11:51:53.987Z,11.63
2022-10-08T11:54:27.324Z,11.57
2022-10-08T11:57:17.894Z,11.59
2022-10-08T12:00:08.503Z,11.59
2022-10-08T12:02:42.562Z,11.52
2022-10-08T12:05:23.265Z,11.46
2022-10-08T12:07:58.621Z,11.50
2022-10-08T12:10:27.951Z,11.45
2022-10-08T12:12:54.759Z,11.46
2022-10-08T12:15:24.616Z,11.46
2022-10-08T12:18:25.832Z,11.43
2022-10-08T12:21:18.037Z,11.44
2022-10-08T12:23:45.178Z,11.40
2022-10-08T12:26:14.614Z,11.30
2022-10-08T12:28:49.577Z,11.33
2022-10-08T12:31:23.948Z,11.33
2022-10-08T12:34:01.566Z,11.37
2022-10-08T12:36:37.700Z,11.42
2022-10-08T12:39:10.324Z,11.54
2022-10-08T12:41:58.038Z,11.69
2022-10-08T12:44:41.749Z,11.82
2022-10-08T12:47:27.857Z,11.96
2022-10-08T12:50:06.018Z,12.11
2022-10-08T12:52:35.997Z,12.28
2022-10-08T12:55:05.351Z,12.41
2022-10-08T12:57:40.808Z,12.44
2022-10-08T13:00:10.998Z,12.58
2022-10-08T13:02:42.332Z,12.64
2022-10-08T13:05:33.756Z,12.68
2022-10-08T13:08:37.460Z,12.77
2022-10-08T13:11:13.747Z,12.85
2022-10-08T13:13:40.457Z,12.82
2022-10-08T13:16:10.739Z,12.68
2022-10-08T13:18:39.878Z,12.73
2022-10-08T13:21:23.347Z,12.82
2022-10-08T13:23:50.265Z,12.88
2022-10-08T13:26:45.456Z,13.00
2022-10-08T13:29:21.425Z,13.10
2022-10-08T13:32:25.035Z,13.18
2022-10-08T13:35:00.602Z,13.14
2022-10-08T13:37:35.024Z,12.87
2022-10-08T13:40:13.689Z,13.03
2022-10-08T13:42:43.566Z,12.98
2022-10-08T13:45:17.134Z,12.96
2022-10-08T13:47:44.113Z,12.75
2022-10-08T13:50:11.732Z,12.36
2022-10-08T13:52:43.326Z,12.04
2022-10-08T13:55:23.639Z,11.95
2022-10-08T13:57:50.625Z,12.07
2022-10-08T14:00:18.359Z,11.87
2022-10-08T14:02:45.189Z,11.86
2022-10-08T14:05:12.065Z,11.87
2022-10-08T14:07:39.237Z,11.93
2022-10-08T14:10:07.002Z,11.88
2022-10-08T14:12:35.089Z,11.83
2022-10-08T14:15:01.939Z,11.61
2022-10-08T14:17:28.742Z,11.51
2022-10-08T14:19:55.638Z,11.50
2022-10-08T14:22:22.818Z,11.48
2022-10-08T14:24:49.571Z,11.59
2022-10-08T14:27:16.516Z,11.63
2022-10-08T14:29:43.340Z,11.72
2022-10-08T14:32:10.855Z,11.83
2022-10-08T14:34:37.746Z,11.88
2022-10-08T14:37:04.933Z,11.93
2022-10-08T14:39:31.768Z,12.08
2022-10-08T14:41:59.404Z,11.93
2022-10-08T14:44:26.684Z,11.92
2022-10-08T14:46:53.481Z,11.87
2022-10-08T14:49:21.367Z,11.89
2022-10-08T14:51:49.521Z,11.92
2022-10-08T14:54:19.473Z,12.02
2022-10-08T14:56:46.785Z,12.18
2022-10-08T14:59:13.831Z,12.23
2022-10-08T15:01:40.678Z,12.31
2022-10-08T15:04:08.109Z,12.29
2022-10-08T15:06:35.040Z,12.39
2022-10-08T15:09:01.931Z,12.51
2022-10-08T15:11:28.767Z,12.42
2022-10-08T15:13:55.658Z,12.11
2022-10-08T15:16:22.922Z,12.04
2022-10-08T15:18:50.042Z,11.93
2022-10-08T15:21:17.376Z,11.86
2022-10-08T15:23:44.209Z,11.86
2022-10-08T15:26:14.406Z,11.90
2022-10-08T15:28:42.499Z,11.94
2022-10-08T15:31:18.245Z,11.90
2022-10-08T15:33:47.718Z,11.90
2022-10-08T15:36:28.332Z,11.81
2022-10-08T15:39:00.188Z,11.68
2022-10-08T15:41:31.980Z,11.55
2022-10-08T15:44:20.457Z,11.40
2022-10-08T15:46:49.393Z,11.47
2022-10-08T15:49:16.640Z,11.57
2022-10-08T15:51:43.401Z,11.79
2022-10-08T15:54:10.286Z,12.03
2022-10-08T15:56:37.091Z,12.25
2022-10-08T15:59:04.794Z,12.41
2022-10-08T16:01:32.060Z,12.42
2022-10-08T16:03:59.214Z,12.17
2022-10-08T16:06:33.553Z,11.77
2022-10-08T16:09:00.954Z,11.28
2022-10-08T16:11:30.742Z,11.09
2022-10-08T16:14:03.156Z,10.94
2022-10-08T16:16:30.529Z,10.94
2022-10-08T16:19:00.116Z,10.90
2022-10-08T16:21:28.867Z,10.91
2022-10-08T16:23:57.162Z,10.95
2022-10-08T16:26:25.809Z,11.01
2022-10-08T16:28:59.002Z,10.93
2022-10-08T16:31:28.456Z,10.95
2022-10-08T16:34:00.241Z,11.08
2022-10-08T16:36:29.424Z,10.97
2022-10-08T16:38:56.646Z,10.89
2022-10-08T16:41:29.307Z,10.85
2022-10-08T16:43:59.361Z,10.83
2022-10-08T16:46:29.733Z,10.93
2022-10-08T16:48:58.742Z,11.12
2022-10-08T16:51:27.999Z,11.34
2022-10-08T16:53:57.340Z,11.62
2022-10-08T16:56:27.988Z,11.79
2022-10-08T16:58:56.593Z,11.94
2022-10-08T17:01:24.210Z,12.07
2022-10-08T17:03:51.778Z,12.18
2022-10-08T17:06:20.710Z,12.30
2022-10-08T17:08:48.152Z,12.32
2022-10-08T17:11:15.608Z,12.41
2022-10-08T17:13:48.342Z,12.39
2022-10-08T17:16:16.390Z,12.44
2022-10-08T17:18:43.351Z,12.47
2022-10-08T17:21:11.071Z,12.42
2022-10-08T17:23:38.075Z,12.39
2022-10-08T17:26:08.335Z,12.49
2022-10-08T17:28:38.093Z,12.43
2022-10-08T17:31:06.267Z,12.23
2022-10-08T17:33:35.757Z,12.20
2022-10-08T17:36:05.351Z,12.08
2022-10-08T17:38:33.163Z,11.81
2022-10-08T17:40:59.990Z,11.74
2022-10-08T17:43:26.989Z,11.87
2022-10-08T17:45:53.877Z,11.88
2022-10-08T17:48:20.785Z,11.76
2022-10-08T17:50:47.629Z,11.89
2022-10-08T17:53:14.782Z,11.93
2022-10-08T17:55:41.734Z,12.07
2022-10-08T17:58:08.521Z,11.63
2022-10-08T18:00:35.517Z,11.44
2022-10-08T18:03:02.392Z,11.26
2022-10-08T18:05:29.105Z,11.34
2022-10-08T18:07:56.041Z,11.56
2022-10-08T18:10:22.849Z,11.66
2022-10-08T18:12:50.205Z,11.79
2022-10-08T18:15:18.393Z,11.98
2022-10-08T18:17:57.170Z,12.14
2022-10-08T18:20:23.929Z,12.21
2022-10-08T18:22:50.854Z,12.25
2022-10-08T18:25:17.944Z,12.24
2022-10-08T18:27:44.696Z,11.93
2022-10-08T18:30:11.849Z,11.65
2022-10-08T18:32:38.609Z,11.33
2022-10-08T18:35:05.660Z,11.21
2022-10-08T18:37:32.483Z,11.36
2022-10-08T18:39:59.254Z,11.43
2022-10-08T18:42:26.311Z,11.45
2022-10-08T18:44:53.116Z,11.40
2022-10-08T18:47:22.705Z,11.41
2022-10-08T18:49:49.735Z,11.62
2022-10-08T18:52:21.230Z,11.68
2022-10-08T18:54:48.373Z,11.84
2022-10-08T18:57:15.328Z,11.90
2022-10-08T18:59:42.123Z,11.86
2022-10-08T19:02:10.536Z,11.97
2022-10-08T19:04:38.028Z,12.18
2022-10-08T19:07:04.866Z,12.35
2022-10-08T19:09:31.776Z,12.32
2022-10-08T19:11:58.642Z,12.26
2022-10-08T19:14:25.403Z,12.06
2022-10-08T19:16:52.514Z,12.16
2022-10-08T19:19:24.995Z,12.21
2022-10-08T19:21:55.478Z,12.38
2022-10-08T19:24:24.645Z,12.52
2022-10-08T19:26:52.690Z,12.47
2022-10-08T19:29:27.506Z,12.48
2022-10-08T19:31:54.363Z,12.45
2022-10-08T19:34:26.050Z,12.50
2022-10-08T19:36:53.430Z,12.48
2022-10-08T19:39:23.268Z,12.38
2022-10-08T19:41:50.697Z,12.37
2022-10-08T19:44:18.236Z,12.41
2022-10-08T19:46:46.015Z,12.52
2022-10-08T19:49:12.912Z,12.52
2022-10-08T19:51:40.262Z,12.54
2022-10-08T19:54:07.327Z,12.53
2022-10-08T19:56:34.381Z,12.57
2022-10-08T19:59:01.241Z,12.49
2022-10-08T20:01:33.887Z,12.36
2022-10-08T20:04:02.471Z,12.29
2022-10-08T20:06:31.845Z,12.25
2022-10-08T20:09:01.069Z,12.20
2022-10-08T20:11:29.955Z,12.19
2022-10-08T20:13:57.693Z,12.18
2022-10-08T20:16:31.062Z,12.26
2022-10-08T20:19:09.454Z,12.13
2022-10-08T20:21:37.640Z,12.17
2022-10-08T20:24:05.125Z,12.18
2022-10-08T20:26:36.382Z,12.23
2022-10-08T20:29:09.526Z,12.17
2022-10-08T20:31:39.238Z,11.98
2022-10-08T20:34:11.441Z,11.96
2022-10-08T20:36:41.579Z,11.92
2022-10-08T20:39:11.549Z,11.82
2022-10-08T20:41:38.318Z,11.84
2022-10-08T20:44:05.630Z,11.86
2022-10-08T20:46:34.090Z,11.83
2022-10-08T20:49:01.636Z,11.77
2022-10-08T20:51:29.810Z,11.80
2022-10-08T20:54:06.366Z,11.80
2022-10-08T20:56:39.565Z,11.88
2022-10-08T20:59:08.870Z,11.83
2022-10-08T21:01:38.221Z,11.79
2022-10-08T21:04:06.850Z,11.81
2022-10-08T21:06:39.884Z,11.79
2022-10-08T21:09:07.550Z,11.80
2022-10-08T21:11:34.594Z,11.86
2022-10-08T21:14:01.853Z,11.84
2022-10-08T21:16:31.921Z,11.89
2022-10-08T21:19:01.711Z,11.81
2022-10-08T21:21:30.259Z,11.76
2022-10-08T21:23:58.772Z,11.78
2022-10-08T21:26:27.071Z,11.80
2022-10-08T21:28:57.124Z,11.90
2022-10-08T21:31:26.268Z,11.86
2022-10-08T21:33:54.356Z,11.91
2022-10-08T21:36:24.265Z,12.04
2022-10-08T21:38:51.581Z,12.06
2022-10-08T21:41:20.099Z,12.14
2022-10-08T21:43:52.422Z,11.84
2022-10-08T21:46:24.592Z,10.98
2022-10-08T21:48:56.002Z,10.77
2022-10-08T21:51:23.685Z,10.77
2022-10-08T21:53:53.553Z,10.78
2022-10-08T21:56:23.154Z,10.78
2022-10-08T21:58:52.549Z,10.77
2022-10-08T22:01:49.135Z,10.76
2022-10-08T22:04:22.343Z,10.83
2022-10-08T22:06:54.397Z,10.99
2022-10-08T22:09:26.917Z,11.16
2022-10-08T22:11:55.047Z,11.20
2022-10-08T22:14:22.449Z,11.23
2022-10-08T22:16:52.010Z,11.43
2022-10-08T22:19:19.627Z,11.65
2022-10-08T22:21:46.898Z,11.78
2022-10-08T22:24:14.130Z,11.70
2022-10-08T22:26:43.890Z,11.65
2022-10-08T22:29:10.807Z,11.60
2022-10-08T22:31:38.102Z,11.45
2022-10-08T22:34:05.617Z,11.49
2022-10-08T22:36:33.904Z,11.35
2022-10-08T22:39:00.724Z,11.40
2022-10-08T22:41:32.178Z,11.28
2022-10-08T22:44:01.981Z,11.37
2022-10-08T22:46:31.636Z,11.43
2022-10-08T22:49:08.675Z,11.58
2022-10-08T22:51:35.772Z,11.72
2022-10-08T22:54:02.522Z,11.79
2022-10-08T22:56:30.975Z,11.70
2022-10-08T22:58:59.791Z,11.73
2022-10-08T23:01:28.353Z,11.78
2022-10-08T23:03:55.323Z,11.74
2022-10-08T23:06:23.855Z,11.79
2022-10-08T23:09:00.551Z,11.78
2022-10-08T23:11:28.023Z,11.78
2022-10-08T23:13:56.899Z,11.77
2022-10-08T23:16:26.807Z,11.70
2022-10-08T23:18:59.658Z,11.74
2022-10-08T23:21:27.559Z,11.74
2022-10-08T23:23:55.111Z,11.77
2022-10-08T23:26:23.302Z,11.87
2022-10-08T23:28:51.868Z,11.81
2022-10-08T23:31:25.976Z,11.79
2022-10-08T23:33:54.880Z,11.80
2022-10-08T23:36:24.081Z,11.73
2022-10-08T23:38:51.397Z,11.75
2022-10-08T23:41:18.632Z,11.74
2022-10-08T23:43:47.331Z,11.78
2022-10-08T23:46:16.787Z,11.82
2022-10-08T23:48:43.974Z,11.73
2022-10-08T23:51:12.203Z,11.79
2022-10-08T23:53:39.339Z,11.84
2022-10-08T23:56:06.856Z,11.81
2022-10-08T23:58:33.630Z,11.70
